sensor_id;sensor_type;location;lat;lon;timestamp;pressure;altitude;pressure_sealevel;temperature;humidity
78431;BME280;67727;50.236;22.452;2023-04-24T00:01:58;98989.75;;;9.04;63.77
78431;BME280;67727;50.236;22.452;2023-04-24T00:04:25;98988.27;;;9.03;63.70
78431;BME280;67727;50.236;22.452;2023-04-24T00:06:52;98982.97;;;9.05;63.90
78431;BME280;67727;50.236;22.452;2023-04-24T00:09:23;98981.54;;;9.06;63.87
78431;BME280;67727;50.236;22.452;2023-04-24T00:11:50;98983.23;;;9.09;63.35
78431;BME280;67727;50.236;22.452;2023-04-24T00:14:17;98978.91;;;9.09;64.31
78431;BME280;67727;50.236;22.452;2023-04-24T00:16:44;98979.45;;;9.09;64.57
78431;BME280;67727;50.236;22.452;2023-04-24T00:19:11;98978.58;;;9.08;64.69
78431;BME280;67727;50.236;22.452;2023-04-24T00:21:39;98977.41;;;9.05;64.47
78431;BME280;67727;50.236;22.452;2023-04-24T00:24:06;98976.59;;;9.02;64.57
78431;BME280;67727;50.236;22.452;2023-04-24T00:26:35;98976.14;;;8.98;64.66
78431;BME280;67727;50.236;22.452;2023-04-24T00:29:02;98972.60;;;8.94;64.88
78431;BME280;67727;50.236;22.452;2023-04-24T00:31:29;98970.70;;;8.89;64.78
78431;BME280;67727;50.236;22.452;2023-04-24T00:33:56;98971.05;;;8.85;64.83
78431;BME280;67727;50.236;22.452;2023-04-24T00:36:22;98967.15;;;8.82;64.94
78431;BME280;67727;50.236;22.452;2023-04-24T00:38:49;98965.46;;;8.80;65.06
78431;BME280;67727;50.236;22.452;2023-04-24T00:41:16;98961.91;;;8.79;65.24
78431;BME280;67727;50.236;22.452;2023-04-24T00:43:43;98963.55;;;8.79;65.34
78431;BME280;67727;50.236;22.452;2023-04-24T00:46:10;98962.80;;;8.77;65.61
78431;BME280;67727;50.236;22.452;2023-04-24T00:48:39;98965.30;;;8.76;65.48
78431;BME280;67727;50.236;22.452;2023-04-24T00:51:06;98965.27;;;8.71;65.48
78431;BME280;67727;50.236;22.452;2023-04-24T00:53:35;98964.73;;;8.68;65.33
78431;BME280;67727;50.236;22.452;2023-04-24T00:56:02;98960.81;;;8.64;65.99
78431;BME280;67727;50.236;22.452;2023-04-24T00:58:29;98961.80;;;8.59;65.88
78431;BME280;67727;50.236;22.452;2023-04-24T01:00:58;98961.57;;;8.55;65.88
78431;BME280;67727;50.236;22.452;2023-04-24T01:03:29;98962.64;;;8.51;66.20
78431;BME280;67727;50.236;22.452;2023-04-24T01:05:57;98958.80;;;8.43;66.24
78431;BME280;67727;50.236;22.452;2023-04-24T01:08:24;98959.24;;;8.37;66.82
78431;BME280;67727;50.236;22.452;2023-04-24T01:10:55;98955.70;;;8.33;66.61
78431;BME280;67727;50.236;22.452;2023-04-24T01:13:26;98956.17;;;8.30;66.93
78431;BME280;67727;50.236;22.452;2023-04-24T01:15:56;98958.38;;;8.31;66.47
78431;BME280;67727;50.236;22.452;2023-04-24T01:18:23;98959.40;;;8.31;66.41
78431;BME280;67727;50.236;22.452;2023-04-24T01:20:53;98960.64;;;8.30;66.37
78431;BME280;67727;50.236;22.452;2023-04-24T01:23:20;98955.65;;;8.28;66.84
78431;BME280;67727;50.236;22.452;2023-04-24T01:25:49;98955.45;;;8.23;66.79
78431;BME280;67727;50.236;22.452;2023-04-24T01:28:17;98955.39;;;8.18;67.29
78431;BME280;67727;50.236;22.452;2023-04-24T01:30:44;98954.83;;;8.13;67.03
78431;BME280;67727;50.236;22.452;2023-04-24T01:33:13;98954.52;;;8.10;66.67
78431;BME280;67727;50.236;22.452;2023-04-24T01:35:42;98951.06;;;8.07;66.42
78431;BME280;67727;50.236;22.452;2023-04-24T01:38:09;98951.61;;;8.03;66.83
78431;BME280;67727;50.236;22.452;2023-04-24T01:40:36;98949.39;;;8.01;66.74
78431;BME280;67727;50.236;22.452;2023-04-24T01:43:03;98946.23;;;8.01;66.88
78431;BME280;67727;50.236;22.452;2023-04-24T01:45:30;98945.42;;;8.02;66.64
78431;BME280;67727;50.236;22.452;2023-04-24T01:47:57;98944.02;;;8.04;67.02
78431;BME280;67727;50.236;22.452;2023-04-24T01:50:24;98946.02;;;8.04;66.87
78431;BME280;67727;50.236;22.452;2023-04-24T01:52:51;98945.98;;;8.05;67.21
78431;BME280;67727;50.236;22.452;2023-04-24T01:55:18;98947.45;;;8.04;66.92
78431;BME280;67727;50.236;22.452;2023-04-24T01:57:45;98939.95;;;8.03;67.42
78431;BME280;67727;50.236;22.452;2023-04-24T02:00:12;98940.17;;;8.01;67.25
78431;BME280;67727;50.236;22.452;2023-04-24T02:02:40;98940.77;;;7.98;67.36
78431;BME280;67727;50.236;22.452;2023-04-24T02:05:08;98940.68;;;7.95;67.18
78431;BME280;67727;50.236;22.452;2023-04-24T02:07:35;98938.59;;;7.91;66.88
78431;BME280;67727;50.236;22.452;2023-04-24T02:10:03;98937.23;;;7.88;66.84
78431;BME280;67727;50.236;22.452;2023-04-24T02:12:30;98936.45;;;7.84;67.32
78431;BME280;67727;50.236;22.452;2023-04-24T02:14:57;98935.07;;;7.82;66.93
78431;BME280;67727;50.236;22.452;2023-04-24T02:17:24;98930.77;;;7.81;67.05
78431;BME280;67727;50.236;22.452;2023-04-24T02:19:51;98930.09;;;7.83;66.99
78431;BME280;67727;50.236;22.452;2023-04-24T02:22:18;98924.38;;;7.83;67.20
78431;BME280;67727;50.236;22.452;2023-04-24T02:24:45;98919.98;;;7.83;67.05
78431;BME280;67727;50.236;22.452;2023-04-24T02:27:12;98917.88;;;7.83;67.13
78431;BME280;67727;50.236;22.452;2023-04-24T02:29:39;98917.27;;;7.82;67.17
78431;BME280;67727;50.236;22.452;2023-04-24T02:32:06;98910.63;;;7.81;66.88
78431;BME280;67727;50.236;22.452;2023-04-24T02:34:32;98908.77;;;7.78;67.16
78431;BME280;67727;50.236;22.452;2023-04-24T02:36:59;98907.45;;;7.76;67.18
78431;BME280;67727;50.236;22.452;2023-04-24T02:39:26;98908.11;;;7.74;67.42
78431;BME280;67727;50.236;22.452;2023-04-24T02:41:53;98906.18;;;7.70;67.64
78431;BME280;67727;50.236;22.452;2023-04-24T02:44:20;98906.18;;;7.68;67.51
78431;BME280;67727;50.236;22.452;2023-04-24T02:46:48;98907.34;;;7.65;67.59
78431;BME280;67727;50.236;22.452;2023-04-24T02:49:14;98906.76;;;7.64;67.45
78431;BME280;67727;50.236;22.452;2023-04-24T02:51:41;98903.77;;;7.64;67.68
78431;BME280;67727;50.236;22.452;2023-04-24T02:54:08;98901.48;;;7.66;67.51
78431;BME280;67727;50.236;22.452;2023-04-24T02:56:38;98903.27;;;7.69;67.47
78431;BME280;67727;50.236;22.452;2023-04-24T02:59:07;98906.71;;;7.71;67.26
78431;BME280;67727;50.236;22.452;2023-04-24T03:01:34;98903.76;;;7.72;67.20
78431;BME280;67727;50.236;22.452;2023-04-24T03:04:02;98905.48;;;7.72;67.20
78431;BME280;67727;50.236;22.452;2023-04-24T03:06:29;98905.45;;;7.71;67.28
78431;BME280;67727;50.236;22.452;2023-04-24T03:09:00;98914.52;;;7.69;67.34
78431;BME280;67727;50.236;22.452;2023-04-24T03:11:27;98915.10;;;7.65;67.34
78431;BME280;67727;50.236;22.452;2023-04-24T03:13:54;98914.27;;;7.61;67.32
78431;BME280;67727;50.236;22.452;2023-04-24T03:16:21;98914.60;;;7.57;67.22
78431;BME280;67727;50.236;22.452;2023-04-24T03:18:48;98915.74;;;7.53;67.27
78431;BME280;67727;50.236;22.452;2023-04-24T03:21:15;98914.02;;;7.50;67.22
78431;BME280;67727;50.236;22.452;2023-04-24T03:23:42;98914.31;;;7.46;67.19
78431;BME280;67727;50.236;22.452;2023-04-24T03:26:08;98912.64;;;7.42;67.45
78431;BME280;67727;50.236;22.452;2023-04-24T03:28:37;98913.44;;;7.40;67.47
78431;BME280;67727;50.236;22.452;2023-04-24T03:31:04;98911.83;;;7.40;67.38
78431;BME280;67727;50.236;22.452;2023-04-24T03:33:31;98910.56;;;7.42;67.18
78431;BME280;67727;50.236;22.452;2023-04-24T03:35:58;98912.54;;;7.45;67.42
78431;BME280;67727;50.236;22.452;2023-04-24T03:38:25;98914.58;;;7.45;67.49
78431;BME280;67727;50.236;22.452;2023-04-24T03:40:51;98914.67;;;7.46;67.51
78431;BME280;67727;50.236;22.452;2023-04-24T03:43:18;98917.45;;;7.45;67.64
78431;BME280;67727;50.236;22.452;2023-04-24T03:45:48;98922.27;;;7.44;67.74
78431;BME280;67727;50.236;22.452;2023-04-24T03:48:14;98920.23;;;7.44;67.92
78431;BME280;67727;50.236;22.452;2023-04-24T03:50:41;98921.83;;;7.42;68.10
78431;BME280;67727;50.236;22.452;2023-04-24T03:53:08;98924.81;;;7.39;68.58
78431;BME280;67727;50.236;22.452;2023-04-24T03:55:37;98926.02;;;7.35;68.73
78431;BME280;67727;50.236;22.452;2023-04-24T03:58:04;98927.55;;;7.35;68.80
78431;BME280;67727;50.236;22.452;2023-04-24T04:00:31;98929.58;;;7.34;68.87
78431;BME280;67727;50.236;22.452;2023-04-24T04:02:58;98929.96;;;7.36;69.23
78431;BME280;67727;50.236;22.452;2023-04-24T04:05:25;98928.98;;;7.42;69.21
78431;BME280;67727;50.236;22.452;2023-04-24T04:07:52;98930.67;;;7.50;69.26
78431;BME280;67727;50.236;22.452;2023-04-24T04:10:21;98932.60;;;7.61;69.17
78431;BME280;67727;50.236;22.452;2023-04-24T04:12:48;98937.98;;;7.72;68.97
78431;BME280;67727;50.236;22.452;2023-04-24T04:15:17;98931.66;;;7.84;68.95
78431;BME280;67727;50.236;22.452;2023-04-24T04:17:44;98934.13;;;7.97;68.60
78431;BME280;67727;50.236;22.452;2023-04-24T04:20:12;98934.01;;;8.06;68.56
78431;BME280;67727;50.236;22.452;2023-04-24T04:22:40;98937.87;;;8.17;68.23
78431;BME280;67727;50.236;22.452;2023-04-24T04:25:07;98937.14;;;8.28;68.04
78431;BME280;67727;50.236;22.452;2023-04-24T04:27:34;98935.30;;;8.39;68.06
78431;BME280;67727;50.236;22.452;2023-04-24T04:30:02;98931.35;;;8.50;67.79
78431;BME280;67727;50.236;22.452;2023-04-24T04:32:34;98930.66;;;8.62;67.35
78431;BME280;67727;50.236;22.452;2023-04-24T04:35:01;98927.95;;;8.73;67.42
78431;BME280;67727;50.236;22.452;2023-04-24T04:37:34;98928.46;;;8.83;66.84
78431;BME280;67727;50.236;22.452;2023-04-24T04:40:01;98926.44;;;8.94;66.75
78431;BME280;67727;50.236;22.452;2023-04-24T04:42:33;98930.35;;;9.04;66.73
78431;BME280;67727;50.236;22.452;2023-04-24T04:45:07;98930.55;;;9.11;65.96
78431;BME280;67727;50.236;22.452;2023-04-24T04:47:35;98926.27;;;9.17;66.17
78431;BME280;67727;50.236;22.452;2023-04-24T04:50:02;98925.33;;;9.28;66.04
78431;BME280;67727;50.236;22.452;2023-04-24T04:52:30;98927.09;;;9.41;65.29
78431;BME280;67727;50.236;22.452;2023-04-24T04:54:58;98932.23;;;9.53;65.29
78431;BME280;67727;50.236;22.452;2023-04-24T04:57:25;98932.05;;;9.66;64.96
78431;BME280;67727;50.236;22.452;2023-04-24T04:59:52;98932.77;;;9.77;64.86
78431;BME280;67727;50.236;22.452;2023-04-24T05:02:18;98931.02;;;9.87;64.75
78431;BME280;67727;50.236;22.452;2023-04-24T05:04:48;98928.64;;;9.99;64.72
78431;BME280;67727;50.236;22.452;2023-04-24T05:07:14;98927.30;;;10.11;64.63
78431;BME280;67727;50.236;22.452;2023-04-24T05:09:41;98929.97;;;10.23;63.88
78431;BME280;67727;50.236;22.452;2023-04-24T05:12:08;98932.53;;;10.30;63.81
78431;BME280;67727;50.236;22.452;2023-04-24T05:14:35;98928.30;;;10.39;63.65
78431;BME280;67727;50.236;22.452;2023-04-24T05:17:02;98928.25;;;10.49;63.58
78431;BME280;67727;50.236;22.452;2023-04-24T05:19:29;98922.96;;;10.58;63.17
78431;BME280;67727;50.236;22.452;2023-04-24T05:21:56;98920.29;;;10.68;62.85
78431;BME280;67727;50.236;22.452;2023-04-24T05:24:23;98923.42;;;10.76;62.50
78431;BME280;67727;50.236;22.452;2023-04-24T05:26:50;98922.32;;;10.85;63.03
78431;BME280;67727;50.236;22.452;2023-04-24T05:29:17;98922.37;;;10.99;62.58
78431;BME280;67727;50.236;22.452;2023-04-24T05:31:45;98922.95;;;11.12;62.16
78431;BME280;67727;50.236;22.452;2023-04-24T05:34:13;98928.41;;;11.20;62.27
78431;BME280;67727;50.236;22.452;2023-04-24T05:36:42;98923.45;;;11.31;62.33
78431;BME280;67727;50.236;22.452;2023-04-24T05:39:09;98925.41;;;11.42;62.29
78431;BME280;67727;50.236;22.452;2023-04-24T05:41:36;98923.02;;;11.56;62.13
78431;BME280;67727;50.236;22.452;2023-04-24T05:44:02;98925.02;;;11.74;62.63
78431;BME280;67727;50.236;22.452;2023-04-24T05:46:29;98924.05;;;11.99;62.31
78431;BME280;67727;50.236;22.452;2023-04-24T05:48:56;98920.91;;;12.25;61.89
78431;BME280;67727;50.236;22.452;2023-04-24T05:51:23;98919.20;;;12.46;60.08
78431;BME280;67727;50.236;22.452;2023-04-24T05:53:50;98919.86;;;12.63;60.29
78431;BME280;67727;50.236;22.452;2023-04-24T05:56:17;98918.83;;;12.79;59.62
78431;BME280;67727;50.236;22.452;2023-04-24T05:58:45;98919.75;;;12.96;58.96
78431;BME280;67727;50.236;22.452;2023-04-24T06:01:13;98919.23;;;13.04;57.61
78431;BME280;67727;50.236;22.452;2023-04-24T06:03:43;98919.08;;;13.11;57.88
78431;BME280;67727;50.236;22.452;2023-04-24T06:06:10;98916.02;;;13.22;58.33
78431;BME280;67727;50.236;22.452;2023-04-24T06:08:36;98913.14;;;13.42;57.73
78431;BME280;67727;50.236;22.452;2023-04-24T06:11:03;98912.08;;;13.59;58.16
78431;BME280;67727;50.236;22.452;2023-04-24T06:13:30;98916.24;;;13.87;58.16
78431;BME280;67727;50.236;22.452;2023-04-24T06:15:59;98915.11;;;14.17;57.33
78431;BME280;67727;50.236;22.452;2023-04-24T06:18:26;98909.13;;;14.40;56.13
78431;BME280;67727;50.236;22.452;2023-04-24T06:20:54;98910.41;;;14.60;55.66
78431;BME280;67727;50.236;22.452;2023-04-24T06:23:22;98903.55;;;14.74;54.71
78431;BME280;67727;50.236;22.452;2023-04-24T06:25:48;98903.27;;;14.89;54.78
78431;BME280;67727;50.236;22.452;2023-04-24T06:28:16;98901.06;;;15.07;54.57
78431;BME280;67727;50.236;22.452;2023-04-24T06:30:43;98900.89;;;15.30;54.63
78431;BME280;67727;50.236;22.452;2023-04-24T06:33:10;98901.27;;;15.55;53.96
78431;BME280;67727;50.236;22.452;2023-04-24T06:35:37;98900.42;;;15.78;53.44
78431;BME280;67727;50.236;22.452;2023-04-24T06:38:04;98902.76;;;15.99;52.48
78431;BME280;67727;50.236;22.452;2023-04-24T06:40:31;98898.79;;;16.17;51.87
78431;BME280;67727;50.236;22.452;2023-04-24T06:42:58;98897.30;;;16.31;51.38
78431;BME280;67727;50.236;22.452;2023-04-24T06:45:26;98899.80;;;16.47;51.68
78431;BME280;67727;50.236;22.452;2023-04-24T06:47:53;98896.23;;;16.68;51.02
78431;BME280;67727;50.236;22.452;2023-04-24T06:50:20;98892.27;;;16.79;49.84
78431;BME280;67727;50.236;22.452;2023-04-24T06:52:48;98895.83;;;16.89;50.29
78431;BME280;67727;50.236;22.452;2023-04-24T06:55:15;98892.47;;;17.06;50.84
78431;BME280;67727;50.236;22.452;2023-04-24T06:57:43;98896.15;;;17.24;49.69
78431;BME280;67727;50.236;22.452;2023-04-24T07:00:11;98896.64;;;17.30;48.97
78431;BME280;67727;50.236;22.452;2023-04-24T07:02:38;98893.07;;;17.44;49.18
78431;BME280;67727;50.236;22.452;2023-04-24T07:05:04;98891.17;;;17.57;49.13
78431;BME280;67727;50.236;22.452;2023-04-24T07:07:33;98893.23;;;17.70;48.37
78431;BME280;67727;50.236;22.452;2023-04-24T07:10:01;98890.69;;;17.78;48.59
78431;BME280;67727;50.236;22.452;2023-04-24T07:12:30;98892.27;;;17.93;48.84
78431;BME280;67727;50.236;22.452;2023-04-24T07:14:58;98893.73;;;18.14;48.68
78431;BME280;67727;50.236;22.452;2023-04-24T07:17:28;98888.31;;;18.36;48.15
78431;BME280;67727;50.236;22.452;2023-04-24T07:19:55;98888.41;;;18.58;47.78
78431;BME280;67727;50.236;22.452;2023-04-24T07:22:22;98887.52;;;18.80;46.98
78431;BME280;67727;50.236;22.452;2023-04-24T07:24:49;98884.08;;;18.97;46.87
78431;BME280;67727;50.236;22.452;2023-04-24T07:27:16;98883.05;;;19.14;46.32
78431;BME280;67727;50.236;22.452;2023-04-24T07:29:43;98877.63;;;19.21;45.32
78431;BME280;67727;50.236;22.452;2023-04-24T07:32:09;98872.39;;;19.29;46.03
78431;BME280;67727;50.236;22.452;2023-04-24T07:34:36;98877.85;;;19.49;45.66
78431;BME280;67727;50.236;22.452;2023-04-24T07:37:03;98879.21;;;19.66;46.13
78431;BME280;67727;50.236;22.452;2023-04-24T07:39:30;98878.64;;;19.87;45.58
78431;BME280;67727;50.236;22.452;2023-04-24T07:41:58;98877.05;;;20.05;44.59
78431;BME280;67727;50.236;22.452;2023-04-24T07:44:25;98880.56;;;20.23;45.07
78431;BME280;67727;50.236;22.452;2023-04-24T07:46:52;98881.52;;;20.38;43.15
78431;BME280;67727;50.236;22.452;2023-04-24T07:49:19;98878.89;;;20.52;44.42
78431;BME280;67727;50.236;22.452;2023-04-24T07:51:46;98876.92;;;20.70;43.93
78431;BME280;67727;50.236;22.452;2023-04-24T07:54:13;98876.59;;;20.78;42.29
78431;BME280;67727;50.236;22.452;2023-04-24T07:56:40;98873.21;;;20.83;41.67
78431;BME280;67727;50.236;22.452;2023-04-24T07:59:10;98873.08;;;20.76;41.64
78431;BME280;67727;50.236;22.452;2023-04-24T08:01:37;98869.06;;;20.86;42.79
78431;BME280;67727;50.236;22.452;2023-04-24T08:04:06;98870.66;;;21.08;42.84
78431;BME280;67727;50.236;22.452;2023-04-24T08:06:33;98870.14;;;21.29;42.37
78431;BME280;67727;50.236;22.452;2023-04-24T08:09:00;98866.30;;;21.51;42.44
78431;BME280;67727;50.236;22.452;2023-04-24T08:11:29;98869.50;;;21.77;42.06
78431;BME280;67727;50.236;22.452;2023-04-24T08:13:56;98868.36;;;21.98;40.83
78431;BME280;67727;50.236;22.452;2023-04-24T08:16:23;98866.08;;;22.05;40.10
78431;BME280;67727;50.236;22.452;2023-04-24T08:18:53;98866.89;;;22.06;39.92
78431;BME280;67727;50.236;22.452;2023-04-24T08:21:20;98863.39;;;22.11;39.48
78431;BME280;67727;50.236;22.452;2023-04-24T08:23:47;98864.97;;;22.12;39.77
78431;BME280;67727;50.236;22.452;2023-04-24T08:26:14;98861.98;;;22.17;38.54
78431;BME280;67727;50.236;22.452;2023-04-24T08:28:41;98860.36;;;22.18;39.12
78431;BME280;67727;50.236;22.452;2023-04-24T08:31:08;98857.42;;;22.31;40.02
78431;BME280;67727;50.236;22.452;2023-04-24T08:33:35;98850.58;;;22.47;38.64
78431;BME280;67727;50.236;22.452;2023-04-24T08:36:03;98849.38;;;22.50;38.24
78431;BME280;67727;50.236;22.452;2023-04-24T08:38:31;98844.67;;;22.49;38.62
78431;BME280;67727;50.236;22.452;2023-04-24T08:40:59;98843.52;;;22.56;39.34
78431;BME280;67727;50.236;22.452;2023-04-24T08:43:29;98846.96;;;22.75;39.97
78431;BME280;67727;50.236;22.452;2023-04-24T08:45:56;98840.73;;;22.97;39.59
78431;BME280;67727;50.236;22.452;2023-04-24T08:48:23;98835.85;;;23.18;38.66
78431;BME280;67727;50.236;22.452;2023-04-24T08:50:50;98833.36;;;23.34;37.91
78431;BME280;67727;50.236;22.452;2023-04-24T08:53:18;98829.52;;;23.48;38.82
78431;BME280;67727;50.236;22.452;2023-04-24T08:55:47;98833.34;;;23.62;37.62
78431;BME280;67727;50.236;22.452;2023-04-24T08:58:16;98829.08;;;23.70;37.56
78431;BME280;67727;50.236;22.452;2023-04-24T09:00:44;98824.85;;;23.80;37.06
78431;BME280;67727;50.236;22.452;2023-04-24T09:03:15;98822.71;;;23.89;36.81
78431;BME280;67727;50.236;22.452;2023-04-24T09:05:46;98827.31;;;24.00;37.50
78431;BME280;67727;50.236;22.452;2023-04-24T09:08:14;98826.88;;;24.12;36.93
78431;BME280;67727;50.236;22.452;2023-04-24T09:10:41;98823.43;;;24.25;37.23
78431;BME280;67727;50.236;22.452;2023-04-24T09:13:08;98819.41;;;24.38;36.26
78431;BME280;67727;50.236;22.452;2023-04-24T09:15:37;98816.79;;;24.46;35.83
78431;BME280;67727;50.236;22.452;2023-04-24T09:18:05;98816.11;;;24.57;35.53
78431;BME280;67727;50.236;22.452;2023-04-24T09:20:32;98815.69;;;24.68;35.42
78431;BME280;67727;50.236;22.452;2023-04-24T09:22:59;98807.98;;;24.74;35.23
78431;BME280;67727;50.236;22.452;2023-04-24T09:25:32;98806.97;;;24.81;35.58
78431;BME280;67727;50.236;22.452;2023-04-24T09:28:04;98798.91;;;24.95;35.55
78431;BME280;67727;50.236;22.452;2023-04-24T09:30:32;98797.70;;;25.06;35.28
78431;BME280;67727;50.236;22.452;2023-04-24T09:33:14;98796.23;;;25.17;34.62
78431;BME280;67727;50.236;22.452;2023-04-24T09:35:43;98788.52;;;25.31;33.99
78431;BME280;67727;50.236;22.452;2023-04-24T09:38:14;98787.27;;;25.48;33.52
78431;BME280;67727;50.236;22.452;2023-04-24T09:40:41;98786.77;;;25.56;31.16
78431;BME280;67727;50.236;22.452;2023-04-24T09:43:11;98785.47;;;25.36;30.73
78431;BME280;67727;50.236;22.452;2023-04-24T09:45:39;98780.92;;;25.18;31.23
78431;BME280;67727;50.236;22.452;2023-04-24T09:48:10;98779.10;;;24.96;30.95
78431;BME280;67727;50.236;22.452;2023-04-24T09:50:37;98775.02;;;24.78;31.29
78431;BME280;67727;50.236;22.452;2023-04-24T09:53:05;98775.02;;;24.82;31.64
78431;BME280;67727;50.236;22.452;2023-04-24T09:55:39;98767.45;;;24.96;31.67
78431;BME280;67727;50.236;22.452;2023-04-24T09:58:07;98764.13;;;25.13;31.18
78431;BME280;67727;50.236;22.452;2023-04-24T10:00:34;98765.58;;;25.25;29.81
78431;BME280;67727;50.236;22.452;2023-04-24T10:03:04;98760.27;;;25.33;30.12
78431;BME280;67727;50.236;22.452;2023-04-24T10:05:34;98761.38;;;25.40;30.15
78431;BME280;67727;50.236;22.452;2023-04-24T10:08:06;98758.30;;;25.45;30.19
78431;BME280;67727;50.236;22.452;2023-04-24T10:10:37;98755.91;;;25.44;29.91
78431;BME280;67727;50.236;22.452;2023-04-24T10:13:07;98754.48;;;25.36;30.00
78431;BME280;67727;50.236;22.452;2023-04-24T10:15:34;98749.58;;;25.17;30.39
78431;BME280;67727;50.236;22.452;2023-04-24T10:18:05;98748.69;;;25.00;29.68
78431;BME280;67727;50.236;22.452;2023-04-24T10:20:34;98749.66;;;24.95;30.95
78431;BME280;67727;50.236;22.452;2023-04-24T10:23:03;98747.98;;;24.97;29.64
78431;BME280;67727;50.236;22.452;2023-04-24T10:25:32;98746.54;;;24.80;29.61
78431;BME280;67727;50.236;22.452;2023-04-24T10:28:00;98742.55;;;24.85;30.70
78431;BME280;67727;50.236;22.452;2023-04-24T10:30:30;98742.63;;;24.84;29.16
78431;BME280;67727;50.236;22.452;2023-04-24T10:32:57;98744.34;;;24.73;29.95
78431;BME280;67727;50.236;22.452;2023-04-24T10:35:24;98741.81;;;24.87;30.31
78431;BME280;67727;50.236;22.452;2023-04-24T10:37:59;98740.11;;;24.96;28.56
78431;BME280;67727;50.236;22.452;2023-04-24T10:40:35;98739.48;;;24.75;28.62
78431;BME280;67727;50.236;22.452;2023-04-24T10:43:03;98734.69;;;24.37;29.46
78431;BME280;67727;50.236;22.452;2023-04-24T10:45:35;98734.58;;;24.13;30.17
78431;BME280;67727;50.236;22.452;2023-04-24T10:48:05;98735.07;;;23.93;30.99
78431;BME280;67727;50.236;22.452;2023-04-24T10:50:45;98732.90;;;23.78;31.16
78431;BME280;67727;50.236;22.452;2023-04-24T10:53:16;98733.03;;;23.65;30.85
78431;BME280;67727;50.236;22.452;2023-04-24T10:55:49;98730.94;;;23.49;31.21
78431;BME280;67727;50.236;22.452;2023-04-24T10:58:21;98729.65;;;23.42;32.24
78431;BME280;67727;50.236;22.452;2023-04-24T11:00:58;98727.27;;;23.44;32.95
78431;BME280;67727;50.236;22.452;2023-04-24T11:03:28;98721.00;;;23.47;33.01
78431;BME280;67727;50.236;22.452;2023-04-24T11:05:58;98722.20;;;23.60;30.92
78431;BME280;67727;50.236;22.452;2023-04-24T11:08:58;98724.48;;;23.57;29.85
78431;BME280;67727;50.236;22.452;2023-04-24T11:11:29;98722.13;;;23.43;29.31
78431;BME280;67727;50.236;22.452;2023-04-24T11:19:27;98717.92;;;23.17;30.02
78431;BME280;67727;50.236;22.452;2023-04-24T11:22:01;98719.56;;;23.07;30.82
78431;BME280;67727;50.236;22.452;2023-04-24T11:32:25;98715.86;;;23.22;30.23
78431;BME280;67727;50.236;22.452;2023-04-24T11:34:55;98718.59;;;23.26;30.77
78431;BME280;67727;50.236;22.452;2023-04-24T11:37:24;98714.83;;;23.30;30.12
78431;BME280;67727;50.236;22.452;2023-04-24T11:39:53;98713.04;;;23.30;30.11
78431;BME280;67727;50.236;22.452;2023-04-24T11:42:21;98713.45;;;23.27;30.14
78431;BME280;67727;50.236;22.452;2023-04-24T11:44:52;98712.39;;;23.23;30.08
78431;BME280;67727;50.236;22.452;2023-04-24T11:47:19;98707.44;;;23.21;30.03
78431;BME280;67727;50.236;22.452;2023-04-24T11:49:45;98706.48;;;23.15;29.14
78431;BME280;67727;50.236;22.452;2023-04-24T11:52:15;98703.27;;;23.02;29.45
78431;BME280;67727;50.236;22.452;2023-04-24T11:54:47;98701.76;;;23.03;30.61
78431;BME280;67727;50.236;22.452;2023-04-24T11:57:14;98700.48;;;23.20;31.13
78431;BME280;67727;50.236;22.452;2023-04-24T11:59:41;98693.73;;;23.36;30.53
78431;BME280;67727;50.236;22.452;2023-04-24T12:02:08;98688.77;;;23.56;30.31
78431;BME280;67727;50.236;22.452;2023-04-24T12:04:40;98680.41;;;23.68;29.47
78431;BME280;67727;50.236;22.452;2023-04-24T12:07:07;98679.23;;;23.65;28.67
78431;BME280;67727;50.236;22.452;2023-04-24T12:09:46;98676.98;;;23.51;28.28
78431;BME280;67727;50.236;22.452;2023-04-24T12:12:17;98672.13;;;23.39;28.66
78431;BME280;67727;50.236;22.452;2023-04-24T12:14:51;98671.21;;;23.27;28.68
78431;BME280;67727;50.236;22.452;2023-04-24T12:17:25;98663.73;;;23.11;28.71
78431;BME280;67727;50.236;22.452;2023-04-24T12:19:57;98663.27;;;23.02;29.13
78431;BME280;67727;50.236;22.452;2023-04-24T12:22:24;98658.16;;;22.99;29.80
78431;BME280;67727;50.236;22.452;2023-04-24T12:25:04;98653.83;;;22.99;30.37
78431;BME280;67727;50.236;22.452;2023-04-24T12:27:32;98647.73;;;22.98;30.07
78431;BME280;67727;50.236;22.452;2023-04-24T12:30:01;98647.27;;;22.94;30.53
78431;BME280;67727;50.236;22.452;2023-04-24T12:32:28;98643.66;;;23.00;30.25
78431;BME280;67727;50.236;22.452;2023-04-24T12:34:55;98635.55;;;22.99;29.75
78431;BME280;67727;50.236;22.452;2023-04-24T12:37:24;98632.33;;;22.96;29.62
78431;BME280;67727;50.236;22.452;2023-04-24T12:40:06;98628.15;;;22.99;30.77
78431;BME280;67727;50.236;22.452;2023-04-24T12:42:35;98626.30;;;23.08;30.93
78431;BME280;67727;50.236;22.452;2023-04-24T12:45:04;98622.81;;;23.09;30.31
78431;BME280;67727;50.236;22.452;2023-04-24T12:47:33;98616.95;;;23.06;30.09
78431;BME280;67727;50.236;22.452;2023-04-24T12:50:01;98612.59;;;23.04;30.09
78431;BME280;67727;50.236;22.452;2023-04-24T12:52:29;98607.62;;;23.05;29.71
78431;BME280;67727;50.236;22.452;2023-04-24T12:55:00;98602.04;;;23.06;29.99
78431;BME280;67727;50.236;22.452;2023-04-24T12:57:29;98600.74;;;23.10;29.75
78431;BME280;67727;50.236;22.452;2023-04-24T12:59:57;98596.48;;;23.25;29.91
78431;BME280;67727;50.236;22.452;2023-04-24T13:02:27;98593.75;;;23.43;29.91
78431;BME280;67727;50.236;22.452;2023-04-24T13:04:54;98588.13;;;23.58;29.00
78431;BME280;67727;50.236;22.452;2023-04-24T13:07:21;98583.77;;;23.76;29.11
78431;BME280;67727;50.236;22.452;2023-04-24T13:09:50;98580.11;;;23.86;28.56
78431;BME280;67727;50.236;22.452;2023-04-24T13:12:18;98573.48;;;23.84;27.86
78431;BME280;67727;50.236;22.452;2023-04-24T13:14:45;98575.66;;;23.82;28.04